Time;durP1;ratioP1;P1;durP2;ratioP2;P2;SDS_P1;SDS_P2;PMS_P1;PMS_P2;Temp;Humidity;BMP_temperature;BMP_pressure;BME280_temperature;BME280_humidity;BME280_pressure;Samples;Min_cycle;Max_cycle;Signal;HPM_P1;HPM_P2
2021/08/22 00:00:22;;;;;;;5.45;4.05;;;17.50;99.90;;;15.31;100.00;101092.50;2615909;30;20667;-80
2021/08/22 00:02:51;;;;;;;4.40;3.45;;;17.50;99.90;;;15.37;100.00;101090.97;2611870;30;20558;-82
2021/08/22 00:05:20;;;;;;;3.83;3.17;;;18.50;99.90;;;15.36;100.00;101082.03;2616829;30;20525;-81
2021/08/22 00:07:49;;;;;;;7.47;4.20;;;17.50;99.90;;;15.35;100.00;101068.72;2611678;38;21001;-82
2021/08/22 00:10:18;;;;;;;6.30;3.85;;;17.40;99.90;;;15.31;100.00;101062.84;2611433;30;20214;-81
2021/08/22 00:12:47;;;;;;;5.72;3.67;;;17.50;99.90;;;15.26;100.00;101057.09;2610631;30;21096;-82
2021/08/22 00:15:19;;;;;;;4.72;4.13;;;17.40;99.90;;;15.28;100.00;101047.00;2613483;30;20228;-82
2021/08/22 00:17:48;;;;;;;3.70;3.33;;;17.60;99.90;;;15.27;100.00;101037.22;2610341;30;20224;-82
2021/08/22 00:20:20;;;;;;;5.53;4.43;;;17.40;99.90;;;15.24;100.00;101032.16;2614981;30;20266;-82
2021/08/22 00:22:49;;;;;;;5.07;3.67;;;17.40;99.90;;;15.24;100.00;101031.31;2622925;30;20189;-82
2021/08/22 00:25:18;;;;;;;5.30;4.05;;;17.30;99.90;;;15.23;100.00;101017.00;2614940;38;20352;-82
2021/08/22 00:27:47;;;;;;;5.63;3.25;;;17.90;99.90;;;15.19;100.00;101004.03;2616533;30;20293;-83
2021/08/22 00:30:19;;;;;;;3.90;3.42;;;18.30;99.90;;;15.22;100.00;101004.53;2611023;38;20261;-84
2021/08/22 00:32:47;;;;;;;3.80;3.15;;;17.40;99.90;;;15.17;100.00;101009.59;2618228;38;20570;-81
2021/08/22 00:35:16;;;;;;;5.95;4.45;;;17.30;99.90;;;15.18;100.00;101003.19;2627117;30;20214;-82
2021/08/22 00:37:45;;;;;;;4.32;3.92;;;18.10;99.90;;;15.15;100.00;101000.00;2612459;38;20814;-82
2021/08/22 00:40:15;;;;;;;3.95;3.55;;;17.20;99.90;;;15.14;100.00;100996.47;2614924;38;20234;-81
2021/08/22 00:42:45;;;;;;;4.50;3.72;;;17.20;99.90;;;15.08;100.00;100994.47;2613866;30;21436;-81
2021/08/22 00:45:15;;;;;;;4.47;3.25;;;17.20;99.90;;;14.99;100.00;100987.38;2616990;30;20210;-81
2021/08/22 00:47:48;;;;;;;6.07;3.88;;;17.10;99.90;;;14.91;100.00;100985.53;2609797;38;20570;-80
2021/08/22 00:50:18;;;;;;;4.10;3.70;;;17.00;99.90;;;14.92;100.00;100975.59;2612047;38;20207;-82
2021/08/22 00:52:50;;;;;;;4.70;4.20;;;17.00;99.90;;;14.94;100.00;100977.13;2612036;30;20246;-83
2021/08/22 00:55:19;;;;;;;4.20;3.15;;;16.90;99.90;;;14.92;100.00;100967.50;2609735;30;20403;-81
2021/08/22 00:57:48;;;;;;;4.03;3.65;;;16.90;99.90;;;14.93;100.00;100966.50;2611329;30;20654;-81
2021/08/22 01:00:18;;;;;;;5.63;4.22;;;16.80;99.90;;;14.85;100.00;100956.56;2615102;30;20454;-82
2021/08/22 01:02:59;;;;;;;5.68;4.30;;;16.80;99.90;;;14.77;100.00;100951.19;2617444;30;20662;-82
2021/08/22 01:05:42;;;;;;;5.72;3.40;;;16.70;99.90;;;14.70;100.00;100934.88;2610776;38;20341;-82
2021/08/22 01:08:22;;;;;;;6.60;4.47;;;17.20;99.90;;;14.68;100.00;100933.34;2614452;30;20717;-80
2021/08/22 01:10:58;;;;;;;5.15;3.63;;;16.60;99.90;;;14.71;100.00;100852.22;2614053;38;20194;-81
2021/08/22 01:13:36;;;;;;;5.28;4.22;;;16.60;99.90;;;14.69;100.00;100833.53;2614942;38;20521;-82
2021/08/22 01:16:09;;;;;;;4.47;3.63;;;16.70;99.90;;;14.65;100.00;100817.88;2620843;30;20286;-83
2021/08/22 01:18:43;;;;;;;3.80;3.38;;;16.50;99.90;;;14.62;100.00;100805.56;2615476;30;20229;-83
2021/08/22 01:21:16;;;;;;;5.15;3.42;;;16.40;99.90;;;14.59;100.00;100792.44;2616296;30;20400;-83
2021/08/22 01:23:51;;;;;;;6.10;4.03;;;16.40;99.90;;;14.57;100.00;100777.50;2616635;38;20677;-81
2021/08/22 01:26:27;;;;;;;3.83;3.38;;;17.40;99.90;;;14.53;100.00;100768.91;2614020;30;20257;-80
2021/08/22 01:28:58;;;;;;;6.20;4.10;;;16.90;99.90;;;14.50;100.00;100544.91;2612056;38;21040;-83
2021/08/22 01:31:31;;;;;;;4.13;3.72;;;16.40;99.90;;;14.44;100.00;100516.03;2613240;38;20398;-84
2021/08/22 01:34:05;;;;;;;5.15;3.72;;;16.00;99.90;;;14.46;100.00;100506.78;2620863;38;20584;-81
2021/08/22 01:36:34;;;;;;;4.15;3.15;;;16.40;99.90;;;14.38;100.00;100491.44;2616185;30;20365;-82
2021/08/22 01:39:04;;;;;;;4.78;3.97;;;16.40;99.90;;;14.36;100.00;100480.03;2617897;38;21360;-81
2021/08/22 01:41:33;;;;;;;4.07;3.30;;;16.40;99.90;;;14.38;100.00;100467.22;2614377;30;20214;-82
2021/08/22 01:44:05;;;;;;;4.45;3.42;;;16.40;99.90;;;14.36;100.00;100453.09;2614438;38;20669;-80
2021/08/22 01:46:35;;;;;;;6.53;3.80;;;16.40;99.90;;;14.40;100.00;100445.56;2612662;31;21112;-80
2021/08/22 01:49:12;;;;;;;4.20;3.75;;;16.40;99.90;;;14.47;100.00;100441.09;2611025;38;20204;-81
2021/08/22 01:51:43;;;;;;;4.65;3.65;;;17.40;99.90;;;14.53;100.00;100440.41;2616077;30;20210;-83
2021/08/22 01:54:13;;;;;;;7.40;4.10;;;16.50;99.90;;;14.57;100.00;100439.03;2611604;38;20896;-80
2021/08/22 01:56:43;;;;;;;4.82;3.65;;;16.50;99.90;;;14.65;100.00;100440.81;2621716;30;20237;-82
2021/08/22 01:59:12;;;;;;;5.20;3.35;;;16.60;99.90;;;14.64;100.00;100442.66;2619999;30;20929;-82
2021/08/22 02:01:41;;;;;;;6.88;4.35;;;17.70;99.90;;;14.63;100.00;100438.31;2616907;30;21065;-80
2021/08/22 02:04:19;;;;;;;6.07;4.82;;;16.70;99.90;;;14.63;100.00;100435.59;2610047;38;20664;-81
2021/08/22 02:06:55;;;;;;;6.82;3.80;;;16.80;99.90;;;14.61;100.00;100431.41;2613917;30;20448;-82
